sensor_id;sensor_type;location;lat;lon;timestamp;pressure;altitude;pressure_sealevel;temperature;humidity
47753;BME280;2038;51.728;6.674;2022-07-22T00:00:19;101400.97;;;18.89;100.00
47753;BME280;2038;51.728;6.674;2022-07-22T00:02:45;101403.19;;;18.82;100.00
47753;BME280;2038;51.728;6.674;2022-07-22T00:05:11;101402.47;;;18.84;100.00
47753;BME280;2038;51.728;6.674;2022-07-22T00:07:39;101405.06;;;18.84;100.00
47753;BME280;2038;51.728;6.674;2022-07-22T00:10:06;101405.97;;;18.86;100.00
47753;BME280;2038;51.728;6.674;2022-07-22T00:12:36;101406.84;;;18.85;100.00
47753;BME280;2038;51.728;6.674;2022-07-22T00:15:04;101410.25;;;18.86;100.00
47753;BME280;2038;51.728;6.674;2022-07-22T00:17:32;101414.69;;;18.88;100.00
47753;BME280;2038;51.728;6.674;2022-07-22T00:19:58;101416.41;;;18.88;100.00
47753;BME280;2038;51.728;6.674;2022-07-22T00:22:24;101413.94;;;18.91;100.00
47753;BME280;2038;51.728;6.674;2022-07-22T00:24:51;101412.72;;;18.83;100.00
47753;BME280;2038;51.728;6.674;2022-07-22T00:27:17;101420.47;;;18.83;100.00
47753;BME280;2038;51.728;6.674;2022-07-22T00:29:43;101420.44;;;18.81;100.00
47753;BME280;2038;51.728;6.674;2022-07-22T00:32:09;101419.06;;;18.89;100.00
47753;BME280;2038;51.728;6.674;2022-07-22T00:34:36;101414.06;;;18.94;100.00
47753;BME280;2038;51.728;6.674;2022-07-22T00:37:02;101416.53;;;18.91;100.00
47753;BME280;2038;51.728;6.674;2022-07-22T00:39:28;101411.78;;;18.81;100.00
47753;BME280;2038;51.728;6.674;2022-07-22T00:41:54;101422.06;;;18.79;100.00
47753;BME280;2038;51.728;6.674;2022-07-22T00:44:22;101413.50;;;18.80;100.00
47753;BME280;2038;51.728;6.674;2022-07-22T00:46:48;101412.59;;;18.80;100.00
47753;BME280;2038;51.728;6.674;2022-07-22T00:49:14;101410.94;;;18.82;100.00
47753;BME280;2038;51.728;6.674;2022-07-22T00:51:41;101411.72;;;18.79;100.00
47753;BME280;2038;51.728;6.674;2022-07-22T00:54:08;101407.13;;;18.72;100.00
47753;BME280;2038;51.728;6.674;2022-07-22T00:56:35;101407.56;;;18.83;100.00
47753;BME280;2038;51.728;6.674;2022-07-22T00:59:06;101405.47;;;18.74;100.00
47753;BME280;2038;51.728;6.674;2022-07-22T01:01:35;101412.34;;;18.74;100.00
47753;BME280;2038;51.728;6.674;2022-07-22T01:04:01;101406.34;;;18.75;100.00
47753;BME280;2038;51.728;6.674;2022-07-22T01:06:28;101403.56;;;18.70;100.00
47753;BME280;2038;51.728;6.674;2022-07-22T01:08:56;101405.81;;;18.62;100.00
47753;BME280;2038;51.728;6.674;2022-07-22T01:11:23;101410.38;;;18.68;100.00
47753;BME280;2038;51.728;6.674;2022-07-22T01:13:50;101410.25;;;18.65;100.00
47753;BME280;2038;51.728;6.674;2022-07-22T01:16:19;101413.84;;;18.68;100.00
47753;BME280;2038;51.728;6.674;2022-07-22T01:18:46;101406.22;;;18.72;100.00
47753;BME280;2038;51.728;6.674;2022-07-22T01:21:14;101409.63;;;18.70;100.00
47753;BME280;2038;51.728;6.674;2022-07-22T01:23:42;101407.81;;;18.68;100.00
47753;BME280;2038;51.728;6.674;2022-07-22T01:26:08;101407.59;;;18.63;100.00
47753;BME280;2038;51.728;6.674;2022-07-22T01:28:35;101411.00;;;18.62;100.00
47753;BME280;2038;51.728;6.674;2022-07-22T01:31:01;101402.09;;;18.56;100.00
47753;BME280;2038;51.728;6.674;2022-07-22T01:33:27;101409.72;;;18.53;100.00
47753;BME280;2038;51.728;6.674;2022-07-22T01:35:54;101405.44;;;18.53;100.00
47753;BME280;2038;51.728;6.674;2022-07-22T01:38:20;101408.16;;;18.56;100.00
47753;BME280;2038;51.728;6.674;2022-07-22T01:40:47;101413.72;;;18.65;100.00
47753;BME280;2038;51.728;6.674;2022-07-22T01:43:13;101418.38;;;18.74;100.00
47753;BME280;2038;51.728;6.674;2022-07-22T01:45:44;101415.47;;;18.66;100.00
47753;BME280;2038;51.728;6.674;2022-07-22T01:48:11;101411.84;;;18.61;100.00
47753;BME280;2038;51.728;6.674;2022-07-22T01:50:38;101406.78;;;18.64;100.00
47753;BME280;2038;51.728;6.674;2022-07-22T01:53:05;101405.38;;;18.52;100.00
47753;BME280;2038;51.728;6.674;2022-07-22T01:55:32;101411.06;;;18.45;100.00
47753;BME280;2038;51.728;6.674;2022-07-22T01:57:58;101406.94;;;18.50;100.00
47753;BME280;2038;51.728;6.674;2022-07-22T02:00:24;101407.72;;;18.47;100.00
47753;BME280;2038;51.728;6.674;2022-07-22T02:02:51;101408.69;;;18.49;100.00
47753;BME280;2038;51.728;6.674;2022-07-22T02:05:18;101401.41;;;18.41;100.00
47753;BME280;2038;51.728;6.674;2022-07-22T02:07:44;101410.09;;;18.43;100.00
47753;BME280;2038;51.728;6.674;2022-07-22T02:10:10;101411.84;;;18.44;100.00
47753;BME280;2038;51.728;6.674;2022-07-22T02:12:36;101411.78;;;18.42;100.00
47753;BME280;2038;51.728;6.674;2022-07-22T02:15:04;101411.72;;;18.41;100.00
47753;BME280;2038;51.728;6.674;2022-07-22T02:17:33;101410.84;;;18.40;100.00
47753;BME280;2038;51.728;6.674;2022-07-22T02:20:00;101405.00;;;18.44;100.00
47753;BME280;2038;51.728;6.674;2022-07-22T02:22:27;101404.91;;;18.43;100.00
47753;BME280;2038;51.728;6.674;2022-07-22T02:24:53;101404.91;;;18.43;100.00
47753;BME280;2038;51.728;6.674;2022-07-22T02:27:20;101407.03;;;18.51;100.00
47753;BME280;2038;51.728;6.674;2022-07-22T02:29:46;101410.38;;;18.49;100.00
47753;BME280;2038;51.728;6.674;2022-07-22T02:32:12;101394.81;;;18.47;100.00
47753;BME280;2038;51.728;6.674;2022-07-22T02:34:38;101403.34;;;18.46;100.00
47753;BME280;2038;51.728;6.674;2022-07-22T02:37:05;101396.25;;;18.41;100.00
47753;BME280;2038;51.728;6.674;2022-07-22T02:39:31;101402.34;;;18.43;100.00
47753;BME280;2038;51.728;6.674;2022-07-22T02:41:57;101399.75;;;18.43;100.00
47753;BME280;2038;51.728;6.674;2022-07-22T02:44:23;101403.31;;;18.45;100.00
47753;BME280;2038;51.728;6.674;2022-07-22T02:46:50;101404.03;;;18.42;100.00
47753;BME280;2038;51.728;6.674;2022-07-22T02:49:16;101402.91;;;18.36;100.00
47753;BME280;2038;51.728;6.674;2022-07-22T02:51:42;101401.13;;;18.35;100.00
47753;BME280;2038;51.728;6.674;2022-07-22T02:54:08;101402.75;;;18.33;100.00
47753;BME280;2038;51.728;6.674;2022-07-22T02:56:34;101401.19;;;18.36;100.00
47753;BME280;2038;51.728;6.674;2022-07-22T02:59:01;101404.59;;;18.35;100.00
47753;BME280;2038;51.728;6.674;2022-07-22T03:01:27;101400.41;;;18.37;100.00
47753;BME280;2038;51.728;6.674;2022-07-22T03:03:54;101395.16;;;18.36;100.00
47753;BME280;2038;51.728;6.674;2022-07-22T03:06:20;101393.38;;;18.35;100.00
47753;BME280;2038;51.728;6.674;2022-07-22T03:08:47;101398.53;;;18.35;100.00
47753;BME280;2038;51.728;6.674;2022-07-22T03:11:13;101400.41;;;18.37;100.00
47753;BME280;2038;51.728;6.674;2022-07-22T03:13:39;101405.69;;;18.40;100.00
47753;BME280;2038;51.728;6.674;2022-07-22T03:16:06;101414.22;;;18.39;100.00
47753;BME280;2038;51.728;6.674;2022-07-22T03:18:32;101407.59;;;18.44;100.00
47753;BME280;2038;51.728;6.674;2022-07-22T03:21:00;101404.25;;;18.47;100.00
47753;BME280;2038;51.728;6.674;2022-07-22T03:23:26;101409.88;;;18.38;100.00
47753;BME280;2038;51.728;6.674;2022-07-22T03:25:52;101408.06;;;18.36;100.00
47753;BME280;2038;51.728;6.674;2022-07-22T03:28:21;101406.41;;;18.38;100.00
47753;BME280;2038;51.728;6.674;2022-07-22T03:30:48;101405.84;;;18.25;100.00
47753;BME280;2038;51.728;6.674;2022-07-22T03:33:14;101400.03;;;18.30;100.00
47753;BME280;2038;51.728;6.674;2022-07-22T03:35:40;101407.03;;;18.32;100.00
47753;BME280;2038;51.728;6.674;2022-07-22T03:38:07;101408.13;;;18.37;100.00
47753;BME280;2038;51.728;6.674;2022-07-22T03:40:33;101402.41;;;18.44;100.00
47753;BME280;2038;51.728;6.674;2022-07-22T03:42:59;101400.56;;;18.42;100.00
47753;BME280;2038;51.728;6.674;2022-07-22T03:45:26;101403.22;;;18.43;100.00
47753;BME280;2038;51.728;6.674;2022-07-22T03:47:52;101406.34;;;18.36;100.00
47753;BME280;2038;51.728;6.674;2022-07-22T03:50:20;101406.34;;;18.36;100.00
47753;BME280;2038;51.728;6.674;2022-07-22T03:52:46;101408.13;;;18.37;100.00
47753;BME280;2038;51.728;6.674;2022-07-22T03:55:13;101414.03;;;18.35;100.00
47753;BME280;2038;51.728;6.674;2022-07-22T03:57:39;101407.28;;;18.19;100.00
47753;BME280;2038;51.728;6.674;2022-07-22T04:00:06;101409.53;;;18.11;100.00
47753;BME280;2038;51.728;6.674;2022-07-22T04:02:32;101415.25;;;18.23;100.00
47753;BME280;2038;51.728;6.674;2022-07-22T04:04:59;101414.38;;;18.23;100.00
47753;BME280;2038;51.728;6.674;2022-07-22T04:07:25;101410.16;;;18.25;100.00
47753;BME280;2038;51.728;6.674;2022-07-22T04:09:51;101414.78;;;18.32;100.00
47753;BME280;2038;51.728;6.674;2022-07-22T04:12:17;101414.22;;;18.39;100.00
47753;BME280;2038;51.728;6.674;2022-07-22T04:14:43;101417.81;;;18.43;100.00
47753;BME280;2038;51.728;6.674;2022-07-22T04:17:10;101423.97;;;18.45;100.00
47753;BME280;2038;51.728;6.674;2022-07-22T04:19:36;101409.47;;;18.48;100.00
47753;BME280;2038;51.728;6.674;2022-07-22T04:22:02;101413.88;;;18.51;100.00
47753;BME280;2038;51.728;6.674;2022-07-22T04:24:29;101412.31;;;18.53;100.00
47753;BME280;2038;51.728;6.674;2022-07-22T04:26:55;101421.06;;;18.56;100.00
47753;BME280;2038;51.728;6.674;2022-07-22T04:29:22;101410.78;;;18.58;100.00
47753;BME280;2038;51.728;6.674;2022-07-22T04:31:48;101417.72;;;18.59;100.00
47753;BME280;2038;51.728;6.674;2022-07-22T04:34:15;101405.78;;;18.61;100.00
47753;BME280;2038;51.728;6.674;2022-07-22T04:36:41;101404.81;;;18.59;100.00
47753;BME280;2038;51.728;6.674;2022-07-22T04:39:07;101403.25;;;18.62;100.00
47753;BME280;2038;51.728;6.674;2022-07-22T04:41:33;101400.31;;;18.74;100.00
47753;BME280;2038;51.728;6.674;2022-07-22T04:43:59;101402.16;;;18.77;100.00
47753;BME280;2038;51.728;6.674;2022-07-22T04:46:26;101400.56;;;18.80;100.00
47753;BME280;2038;51.728;6.674;2022-07-22T04:48:52;101397.22;;;18.83;100.00
47753;BME280;2038;51.728;6.674;2022-07-22T04:51:18;101403.16;;;18.80;100.00
47753;BME280;2038;51.728;6.674;2022-07-22T04:53:44;101398.88;;;18.81;100.00
47753;BME280;2038;51.728;6.674;2022-07-22T04:56:11;101398.41;;;18.70;100.00
47753;BME280;2038;51.728;6.674;2022-07-22T04:58:37;101394.88;;;18.68;100.00
47753;BME280;2038;51.728;6.674;2022-07-22T05:01:03;101393.19;;;18.68;100.00
47753;BME280;2038;51.728;6.674;2022-07-22T05:03:30;101400.06;;;18.68;100.00
47753;BME280;2038;51.728;6.674;2022-07-22T05:05:56;101400.25;;;18.73;100.00
47753;BME280;2038;51.728;6.674;2022-07-22T05:08:22;101399.50;;;18.75;100.00
47753;BME280;2038;51.728;6.674;2022-07-22T05:10:48;101408.38;;;18.82;100.00
47753;BME280;2038;51.728;6.674;2022-07-22T05:13:15;101408.44;;;18.83;100.00
47753;BME280;2038;51.728;6.674;2022-07-22T05:15:41;101407.56;;;18.83;100.00
47753;BME280;2038;51.728;6.674;2022-07-22T05:18:07;101407.56;;;18.83;100.00
47753;BME280;2038;51.728;6.674;2022-07-22T05:20:34;101412.72;;;18.83;100.00
47753;BME280;2038;51.728;6.674;2022-07-22T05:23:00;101405.06;;;18.84;100.00
47753;BME280;2038;51.728;6.674;2022-07-22T05:25:26;101407.75;;;18.87;100.00
47753;BME280;2038;51.728;6.674;2022-07-22T05:27:54;101411.44;;;18.92;100.00
47753;BME280;2038;51.728;6.674;2022-07-22T05:30:21;101406.25;;;18.92;100.00
47753;BME280;2038;51.728;6.674;2022-07-22T05:32:47;101407.06;;;18.91;100.00
47753;BME280;2038;51.728;6.674;2022-07-22T05:35:14;101411.31;;;18.89;100.00
47753;BME280;2038;51.728;6.674;2022-07-22T05:37:40;101410.78;;;18.98;100.00
47753;BME280;2038;51.728;6.674;2022-07-22T05:40:07;101411.63;;;18.97;100.00
47753;BME280;2038;51.728;6.674;2022-07-22T05:42:34;101405.44;;;18.93;100.00
47753;BME280;2038;51.728;6.674;2022-07-22T05:45:00;101406.06;;;18.88;100.00
47753;BME280;2038;51.728;6.674;2022-07-22T05:47:26;101408.16;;;18.96;100.00
47753;BME280;2038;51.728;6.674;2022-07-22T05:49:52;101409.72;;;18.93;100.00
47753;BME280;2038;51.728;6.674;2022-07-22T05:52:19;101412.31;;;18.93;100.00
47753;BME280;2038;51.728;6.674;2022-07-22T05:54:45;101414.06;;;18.94;100.00
47753;BME280;2038;51.728;6.674;2022-07-22T05:57:11;101418.03;;;19.06;100.00
47753;BME280;2038;51.728;6.674;2022-07-22T05:59:38;101414.72;;;19.09;100.00
47753;BME280;2038;51.728;6.674;2022-07-22T06:02:04;101418.34;;;19.14;100.00
47753;BME280;2038;51.728;6.674;2022-07-22T06:04:31;101411.25;;;19.08;100.00
47753;BME280;2038;51.728;6.674;2022-07-22T06:06:57;101417.22;;;19.07;100.00
47753;BME280;2038;51.728;6.674;2022-07-22T06:09:24;101414.91;;;19.13;100.00
47753;BME280;2038;51.728;6.674;2022-07-22T06:11:50;101416.13;;;19.22;100.00
47753;BME280;2038;51.728;6.674;2022-07-22T06:14:16;101418.56;;;19.18;100.00
47753;BME280;2038;51.728;6.674;2022-07-22T06:16:43;101415.91;;;19.17;100.00
47753;BME280;2038;51.728;6.674;2022-07-22T06:19:09;101422.13;;;19.22;100.00
47753;BME280;2038;51.728;6.674;2022-07-22T06:21:36;101419.75;;;19.27;100.00
47753;BME280;2038;51.728;6.674;2022-07-22T06:24:05;101421.09;;;19.38;100.00
47753;BME280;2038;51.728;6.674;2022-07-22T06:26:31;101419.50;;;19.41;100.00
47753;BME280;2038;51.728;6.674;2022-07-22T06:28:57;101425.25;;;19.55;100.00
47753;BME280;2038;51.728;6.674;2022-07-22T06:31:23;101421.97;;;19.59;100.00
47753;BME280;2038;51.728;6.674;2022-07-22T06:33:50;101427.91;;;19.56;100.00
47753;BME280;2038;51.728;6.674;2022-07-22T06:36:16;101427.09;;;19.57;100.00
47753;BME280;2038;51.728;6.674;2022-07-22T06:38:43;101422.78;;;19.58;100.00
47753;BME280;2038;51.728;6.674;2022-07-22T06:41:10;101423.72;;;19.60;100.00
47753;BME280;2038;51.728;6.674;2022-07-22T06:43:36;101428.66;;;19.54;100.00
47753;BME280;2038;51.728;6.674;2022-07-22T06:46:03;101418.63;;;19.61;100.00
47753;BME280;2038;51.728;6.674;2022-07-22T06:48:29;101428.97;;;19.61;100.00
47753;BME280;2038;51.728;6.674;2022-07-22T06:50:55;101416.19;;;19.66;100.00
47753;BME280;2038;51.728;6.674;2022-07-22T06:53:21;101416.47;;;19.72;100.00
47753;BME280;2038;51.728;6.674;2022-07-22T06:55:48;101413.75;;;19.69;100.00
47753;BME280;2038;51.728;6.674;2022-07-22T06:58:14;101414.88;;;19.76;100.00
47753;BME280;2038;51.728;6.674;2022-07-22T07:00:40;101417.63;;;19.80;100.00
47753;BME280;2038;51.728;6.674;2022-07-22T07:03:07;101423.50;;;19.76;100.00
47753;BME280;2038;51.728;6.674;2022-07-22T07:05:33;101425.31;;;19.79;100.00
47753;BME280;2038;51.728;6.674;2022-07-22T07:07:59;101427.16;;;19.81;100.00
47753;BME280;2038;51.728;6.674;2022-07-22T07:10:26;101419.13;;;19.74;100.00
47753;BME280;2038;51.728;6.674;2022-07-22T07:12:58;101415.28;;;19.86;100.00
47753;BME280;2038;51.728;6.674;2022-07-22T07:15:26;101412.81;;;19.89;100.00
47753;BME280;2038;51.728;6.674;2022-07-22T07:17:53;101412.94;;;19.92;100.00
47753;BME280;2038;51.728;6.674;2022-07-22T07:20:22;101414.03;;;19.99;100.00
47753;BME280;2038;51.728;6.674;2022-07-22T07:22:49;101410.00;;;20.05;100.00
47753;BME280;2038;51.728;6.674;2022-07-22T07:25:16;101412.78;;;20.12;100.00
47753;BME280;2038;51.728;6.674;2022-07-22T07:27:42;101412.63;;;20.07;100.00
47753;BME280;2038;51.728;6.674;2022-07-22T07:30:09;101402.16;;;20.04;100.00
47753;BME280;2038;51.728;6.674;2022-07-22T07:32:36;101405.09;;;19.91;100.00
47753;BME280;2038;51.728;6.674;2022-07-22T07:35:04;101403.47;;;19.93;100.00
47753;BME280;2038;51.728;6.674;2022-07-22T07:37:33;101395.00;;;19.75;100.00
47753;BME280;2038;51.728;6.674;2022-07-22T07:39:59;101398.34;;;19.72;100.00
47753;BME280;2038;51.728;6.674;2022-07-22T07:42:26;101399.44;;;19.79;100.00
47753;BME280;2038;51.728;6.674;2022-07-22T07:44:53;101392.41;;;19.75;100.00
47753;BME280;2038;51.728;6.674;2022-07-22T07:47:19;101395.84;;;19.74;100.00
47753;BME280;2038;51.728;6.674;2022-07-22T07:49:47;101402.22;;;19.83;100.00
47753;BME280;2038;51.728;6.674;2022-07-22T07:52:15;101405.00;;;19.88;100.00
47753;BME280;2038;51.728;6.674;2022-07-22T07:54:42;101409.47;;;19.92;100.00
47753;BME280;2038;51.728;6.674;2022-07-22T07:57:10;101402.97;;;20.03;100.00
47753;BME280;2038;51.728;6.674;2022-07-22T07:59:38;101403.97;;;20.06;100.00
47753;BME280;2038;51.728;6.674;2022-07-22T08:02:05;101403.50;;;20.17;100.00
47753;BME280;2038;51.728;6.674;2022-07-22T08:04:33;101402.53;;;20.15;100.00
47753;BME280;2038;51.728;6.674;2022-07-22T08:07:01;101404.97;;;20.10;100.00
47753;BME280;2038;51.728;6.674;2022-07-22T08:09:27;101410.31;;;20.15;100.00
47753;BME280;2038;51.728;6.674;2022-07-22T08:11:53;101408.84;;;20.21;100.00
47753;BME280;2038;51.728;6.674;2022-07-22T08:14:20;101409.06;;;20.27;100.00
47753;BME280;2038;51.728;6.674;2022-07-22T08:16:46;101414.84;;;20.20;100.00
47753;BME280;2038;51.728;6.674;2022-07-22T08:19:12;101416.63;;;20.21;100.00
47753;BME280;2038;51.728;6.674;2022-07-22T08:21:38;101417.50;;;20.22;100.00
47753;BME280;2038;51.728;6.674;2022-07-22T08:24:09;101413.56;;;20.09;100.00
47753;BME280;2038;51.728;6.674;2022-07-22T08:26:36;101416.91;;;20.06;100.00
47753;BME280;2038;51.728;6.674;2022-07-22T08:29:03;101411.00;;;20.09;100.00
47753;BME280;2038;51.728;6.674;2022-07-22T08:31:31;101398.09;;;20.10;100.00
47753;BME280;2038;51.728;6.674;2022-07-22T08:34:01;101400.38;;;20.25;100.00
47753;BME280;2038;51.728;6.674;2022-07-22T08:36:28;101406.78;;;20.35;100.00
47753;BME280;2038;51.728;6.674;2022-07-22T08:38:55;101411.22;;;20.37;100.00
47753;BME280;2038;51.728;6.674;2022-07-22T08:41:23;101408.72;;;20.40;100.00
47753;BME280;2038;51.728;6.674;2022-07-22T08:43:51;101411.03;;;20.57;100.00
47753;BME280;2038;51.728;6.674;2022-07-22T08:46:18;101414.00;;;20.67;100.00
47753;BME280;2038;51.728;6.674;2022-07-22T08:48:45;101414.88;;;20.68;100.00
47753;BME280;2038;51.728;6.674;2022-07-22T08:51:12;101406.34;;;20.70;100.00
47753;BME280;2038;51.728;6.674;2022-07-22T08:53:38;101411.81;;;20.78;100.00
47753;BME280;2038;51.728;6.674;2022-07-22T08:56:06;101413.13;;;20.92;100.00
47753;BME280;2038;51.728;6.674;2022-07-22T08:58:32;101417.59;;;20.96;100.00
47753;BME280;2038;51.728;6.674;2022-07-22T09:03:54;101406.16;;;21.15;99.15
47753;BME280;2038;51.728;6.674;2022-07-22T09:06:24;101416.50;;;21.13;99.57
47753;BME280;2038;51.728;6.674;2022-07-22T09:08:56;101418.00;;;21.08;99.84
47753;BME280;2038;51.728;6.674;2022-07-22T09:11:32;101410.91;;;21.02;98.52
47753;BME280;2038;51.728;6.674;2022-07-22T09:14:00;101413.63;;;21.06;99.74
47753;BME280;2038;51.728;6.674;2022-07-22T09:19:09;101416.78;;;20.97;97.92
47753;BME280;2038;51.728;6.674;2022-07-22T09:21:38;101409.03;;;20.98;100.00
47753;BME280;2038;51.728;6.674;2022-07-22T09:24:07;101409.34;;;21.08;100.00
47753;BME280;2038;51.728;6.674;2022-07-22T09:26:38;101404.69;;;21.23;99.95
47753;BME280;2038;51.728;6.674;2022-07-22T09:29:06;101403.19;;;21.29;99.91
47753;BME280;2038;51.728;6.674;2022-07-22T09:31:35;101407.59;;;21.32;97.89
47753;BME280;2038;51.728;6.674;2022-07-22T09:34:03;101411.56;;;21.47;97.41
47753;BME280;2038;51.728;6.674;2022-07-22T09:36:31;101412.75;;;21.59;97.87
47753;BME280;2038;51.728;6.674;2022-07-22T09:38:57;101409.63;;;21.69;97.24
47753;BME280;2038;51.728;6.674;2022-07-22T09:41:24;101410.16;;;21.85;99.15
47753;BME280;2038;51.728;6.674;2022-07-22T09:43:50;101411.97;;;21.88;96.93
47753;BME280;2038;51.728;6.674;2022-07-22T09:46:17;101404.00;;;21.82;93.29
47753;BME280;2038;51.728;6.674;2022-07-22T09:49:00;101411.06;;;21.87;94.59
47753;BME280;2038;51.728;6.674;2022-07-22T09:51:26;101409.44;;;21.91;96.98
47753;BME280;2038;51.728;6.674;2022-07-22T09:53:53;101406.78;;;21.88;94.56
47753;BME280;2038;51.728;6.674;2022-07-22T09:56:21;101416.78;;;21.76;94.93
47753;BME280;2038;51.728;6.674;2022-07-22T09:58:49;101413.88;;;21.65;96.19
47753;BME280;2038;51.728;6.674;2022-07-22T10:01:16;101406.19;;;21.41;96.23
47753;BME280;2038;51.728;6.674;2022-07-22T10:03:44;101409.13;;;21.25;98.35
47753;BME280;2038;51.728;6.674;2022-07-22T10:06:15;101399.38;;;21.18;97.32
47753;BME280;2038;51.728;6.674;2022-07-22T10:08:42;101397.28;;;21.08;99.35
47753;BME280;2038;51.728;6.674;2022-07-22T10:11:09;101394.78;;;21.11;99.85
47753;BME280;2038;51.728;6.674;2022-07-22T10:13:38;101396.56;;;21.12;100.00
47753;BME280;2038;51.728;6.674;2022-07-22T10:16:04;101391.19;;;21.08;100.00
47753;BME280;2038;51.728;6.674;2022-07-22T10:18:32;101395.84;;;21.16;99.84
47753;BME280;2038;51.728;6.674;2022-07-22T10:21:16;101398.03;;;21.31;99.36
47753;BME280;2038;51.728;6.674;2022-07-22T10:24:09;101393.00;;;21.35;99.83
47753;BME280;2038;51.728;6.674;2022-07-22T10:26:54;101392.44;;;21.44;95.94
47753;BME280;2038;51.728;6.674;2022-07-22T10:29:26;101390.94;;;21.52;96.66
47753;BME280;2038;51.728;6.674;2022-07-22T10:40:29;101377.91;;;21.77;96.39
47753;BME280;2038;51.728;6.674;2022-07-22T10:48:45;101367.81;;;22.16;95.94
47753;BME280;2038;51.728;6.674;2022-07-22T10:51:19;101369.09;;;22.30;94.98
47753;BME280;2038;51.728;6.674;2022-07-22T10:53:56;101366.16;;;22.50;96.62
47753;BME280;2038;51.728;6.674;2022-07-22T10:56:35;101375.81;;;22.54;93.57
47753;BME280;2038;51.728;6.674;2022-07-22T10:59:17;101378.47;;;22.57;92.38
47753;BME280;2038;51.728;6.674;2022-07-22T11:01:49;101380.94;;;22.52;90.03
47753;BME280;2038;51.728;6.674;2022-07-22T11:04:22;101378.41;;;22.55;90.81
47753;BME280;2038;51.728;6.674;2022-07-22T11:06:52;101377.19;;;22.72;90.86
47753;BME280;2038;51.728;6.674;2022-07-22T11:09:22;101365.22;;;22.79;85.40
47753;BME280;2038;51.728;6.674;2022-07-22T11:11:56;101367.06;;;22.83;89.71
47753;BME280;2038;51.728;6.674;2022-07-22T11:14:26;101362.34;;;23.01;90.38
47753;BME280;2038;51.728;6.674;2022-07-22T11:16:59;101381.34;;;22.99;86.42
47753;BME280;2038;51.728;6.674;2022-07-22T11:19:37;101363.47;;;23.12;87.89
47753;BME280;2038;51.728;6.674;2022-07-22T11:22:09;101366.78;;;23.05;86.19
47753;BME280;2038;51.728;6.674;2022-07-22T11:24:39;101367.34;;;22.94;87.26
47753;BME280;2038;51.728;6.674;2022-07-22T11:27:17;101364.56;;;22.86;88.72
47753;BME280;2038;51.728;6.674;2022-07-22T11:29:49;101368.44;;;22.69;86.01
47753;BME280;2038;51.728;6.674;2022-07-22T11:32:20;101363.91;;;22.62;86.22
47753;BME280;2038;51.728;6.674;2022-07-22T11:34:47;101355.97;;;22.57;86.07
47753;BME280;2038;51.728;6.674;2022-07-22T11:37:15;101349.09;;;22.59;87.62
47753;BME280;2038;51.728;6.674;2022-07-22T11:39:44;101343.41;;;22.72;87.08
47753;BME280;2038;51.728;6.674;2022-07-22T11:42:11;101345.03;;;23.02;87.25
47753;BME280;2038;51.728;6.674;2022-07-22T11:44:39;101341.25;;;23.25;86.50
47753;BME280;2038;51.728;6.674;2022-07-22T11:47:06;101344.06;;;23.36;88.02
47753;BME280;2038;51.728;6.674;2022-07-22T11:49:35;101344.22;;;23.42;89.74
47753;BME280;2038;51.728;6.674;2022-07-22T11:52:05;101336.56;;;23.46;90.43
47753;BME280;2038;51.728;6.674;2022-07-22T11:54:35;101345.44;;;23.54;89.11
47753;BME280;2038;51.728;6.674;2022-07-22T11:57:02;101340.13;;;23.50;88.60
47753;BME280;2038;51.728;6.674;2022-07-22T11:59:29;101344.53;;;23.54;89.93
47753;BME280;2038;51.728;6.674;2022-07-22T12:01:55;101345.44;;;23.56;85.83
47753;BME280;2038;51.728;6.674;2022-07-22T12:04:23;101340.00;;;23.45;87.36
47753;BME280;2038;51.728;6.674;2022-07-22T12:06:51;101344.31;;;23.45;86.12
47753;BME280;2038;51.728;6.674;2022-07-22T12:09:21;101334.66;;;23.41;87.14
47753;BME280;2038;51.728;6.674;2022-07-22T12:11:52;101333.91;;;23.45;87.80
47753;BME280;2038;51.728;6.674;2022-07-22T12:14:21;101338.16;;;23.41;87.21
47753;BME280;2038;51.728;6.674;2022-07-22T12:17:07;101334.66;;;23.41;87.24
47753;BME280;2038;51.728;6.674;2022-07-22T12:19:39;101328.56;;;23.39;87.89
47753;BME280;2038;51.728;6.674;2022-07-22T12:22:11;101326.91;;;23.42;87.52
47753;BME280;2038;51.728;6.674;2022-07-22T12:24:46;101330.50;;;23.47;87.60
47753;BME280;2038;51.728;6.674;2022-07-22T12:27:25;101325.41;;;23.52;87.32
47753;BME280;2038;51.728;6.674;2022-07-22T12:29:51;101325.50;;;23.55;87.23
47753;BME280;2038;51.728;6.674;2022-07-22T12:32:26;101319.41;;;23.56;86.33
47753;BME280;2038;51.728;6.674;2022-07-22T12:35:01;101322.97;;;23.59;87.25
47753;BME280;2038;51.728;6.674;2022-07-22T12:37:45;101318.63;;;23.60;85.44
47753;BME280;2038;51.728;6.674;2022-07-22T12:40:18;101313.53;;;23.63;86.44
47753;BME280;2038;51.728;6.674;2022-07-22T12:43:07;101310.19;;;23.70;86.02
47753;BME280;2038;51.728;6.674;2022-07-22T12:45:38;101310.56;;;23.88;86.18
47753;BME280;2038;51.728;6.674;2022-07-22T12:50:43;101305.97;;;24.17;85.14
47753;BME280;2038;51.728;6.674;2022-07-22T12:53:21;101310.94;;;24.06;84.15
47753;BME280;2038;51.728;6.674;2022-07-22T12:55:53;101297.00;;;24.04;83.96
47753;BME280;2038;51.728;6.674;2022-07-22T12:58:22;101295.59;;;24.20;84.08
47753;BME280;2038;51.728;6.674;2022-07-22T13:00:52;101301.84;;;24.30;86.16
47753;BME280;2038;51.728;6.674;2022-07-22T13:03:22;101298.84;;;24.55;86.06
47753;BME280;2038;51.728;6.674;2022-07-22T13:05:57;101294.06;;;24.79;84.87
47753;BME280;2038;51.728;6.674;2022-07-22T13:08:25;101291.63;;;24.90;84.19
47753;BME280;2038;51.728;6.674;2022-07-22T13:10:53;101285.63;;;24.94;83.18
47753;BME280;2038;51.728;6.674;2022-07-22T13:13:22;101288.88;;;24.82;81.10
47753;BME280;2038;51.728;6.674;2022-07-22T13:15:49;101286.06;;;24.70;82.37
47753;BME280;2038;51.728;6.674;2022-07-22T13:18:16;101287.53;;;24.56;81.26